sensor_id;sensor_type;location;lat;lon;timestamp;P1;durP1;ratioP1;P2;durP2;ratioP2
25437;SDS011;13364;49.084;9.978;2024-01-06T06:30:40;4.80;;;2.05;;
25437;SDS011;13364;49.084;9.978;2024-01-06T06:33:07;3.78;;;1.48;;
25437;SDS011;13364;49.084;9.978;2024-01-06T06:35:35;6.20;;;2.05;;
25437;SDS011;13364;49.084;9.978;2024-01-06T06:38:01;2.08;;;1.67;;
25437;SDS011;13364;49.084;9.978;2024-01-06T06:40:28;3.70;;;1.73;;
25437;SDS011;13364;49.084;9.978;2024-01-06T06:42:56;4.22;;;2.28;;
25437;SDS011;13364;49.084;9.978;2024-01-06T06:45:23;4.05;;;1.73;;
25437;SDS011;13364;49.084;9.978;2024-01-06T06:47:49;2.78;;;2.10;;
25437;SDS011;13364;49.084;9.978;2024-01-06T06:50:16;2.72;;;1.75;;
25437;SDS011;13364;49.084;9.978;2024-01-06T06:52:44;8.13;;;1.65;;
25437;SDS011;13364;49.084;9.978;2024-01-06T06:55:11;1.83;;;1.52;;
25437;SDS011;13364;49.084;9.978;2024-01-06T06:57:38;2.00;;;1.73;;
25437;SDS011;13364;49.084;9.978;2024-01-06T07:00:05;2.40;;;1.73;;
25437;SDS011;13364;49.084;9.978;2024-01-06T07:02:33;5.20;;;2.22;;
25437;SDS011;13364;49.084;9.978;2024-01-06T07:05:00;2.67;;;1.90;;
25437;SDS011;13364;49.084;9.978;2024-01-06T07:07:27;4.90;;;2.30;;
25437;SDS011;13364;49.084;9.978;2024-01-06T07:09:54;3.20;;;1.98;;
25437;SDS011;13364;49.084;9.978;2024-01-06T07:12:21;2.78;;;1.80;;
25437;SDS011;13364;49.084;9.978;2024-01-06T07:14:48;2.30;;;1.52;;
25437;SDS011;13364;49.084;9.978;2024-01-06T07:17:15;3.83;;;1.42;;
25437;SDS011;13364;49.084;9.978;2024-01-06T07:19:41;4.43;;;1.83;;
25437;SDS011;13364;49.084;9.978;2024-01-06T07:22:08;4.57;;;2.20;;
25437;SDS011;13364;49.084;9.978;2024-01-06T07:24:35;2.33;;;1.83;;
25437;SDS011;13364;49.084;9.978;2024-01-06T07:27:02;1.77;;;1.60;;
25437;SDS011;13364;49.084;9.978;2024-01-06T07:29:30;6.40;;;1.88;;
25437;SDS011;13364;49.084;9.978;2024-01-06T07:31:57;3.60;;;1.80;;
25437;SDS011;13364;49.084;9.978;2024-01-06T07:34:24;3.95;;;2.03;;
25437;SDS011;13364;49.084;9.978;2024-01-06T07:36:52;2.22;;;1.58;;
25437;SDS011;13364;49.084;9.978;2024-01-06T07:39:19;3.50;;;2.20;;
25437;SDS011;13364;49.084;9.978;2024-01-06T07:41:46;2.38;;;1.65;;
25437;SDS011;13364;49.084;9.978;2024-01-06T07:44:13;3.88;;;2.30;;
25437;SDS011;13364;49.084;9.978;2024-01-06T07:46:40;5.35;;;2.20;;
25437;SDS011;13364;49.084;9.978;2024-01-06T07:49:06;2.13;;;1.58;;
25437;SDS011;13364;49.084;9.978;2024-01-06T07:51:34;2.38;;;2.17;;
25437;SDS011;13364;49.084;9.978;2024-01-06T07:54:01;2.97;;;1.65;;
25437;SDS011;13364;49.084;9.978;2024-01-06T07:56:28;4.10;;;2.22;;
25437;SDS011;13364;49.084;9.978;2024-01-06T07:58:55;3.47;;;2.42;;
25437;SDS011;13364;49.084;9.978;2024-01-06T08:01:22;4.35;;;2.25;;
25437;SDS011;13364;49.084;9.978;2024-01-06T08:03:49;5.45;;;2.20;;
25437;SDS011;13364;49.084;9.978;2024-01-06T08:06:16;4.30;;;2.15;;
25437;SDS011;13364;49.084;9.978;2024-01-06T08:08:43;2.47;;;2.28;;
25437;SDS011;13364;49.084;9.978;2024-01-06T08:11:12;2.53;;;2.15;;
25437;SDS011;13364;49.084;9.978;2024-01-06T08:13:38;5.35;;;2.25;;
25437;SDS011;13364;49.084;9.978;2024-01-06T08:16:05;3.63;;;2.03;;
25437;SDS011;13364;49.084;9.978;2024-01-06T08:18:32;4.15;;;1.85;;
25437;SDS011;13364;49.084;9.978;2024-01-06T08:20:59;1.77;;;1.40;;
25437;SDS011;13364;49.084;9.978;2024-01-06T08:23:26;3.58;;;1.83;;
25437;SDS011;13364;49.084;9.978;2024-01-06T08:25:53;6.72;;;1.73;;
25437;SDS011;13364;49.084;9.978;2024-01-06T08:28:20;4.75;;;2.40;;
25437;SDS011;13364;49.084;9.978;2024-01-06T08:30:49;3.55;;;2.22;;
25437;SDS011;13364;49.084;9.978;2024-01-06T08:33:16;3.42;;;1.83;;
25437;SDS011;13364;49.084;9.978;2024-01-06T08:35:44;3.28;;;2.20;;
25437;SDS011;13364;49.084;9.978;2024-01-06T08:38:11;4.32;;;2.05;;
25437;SDS011;13364;49.084;9.978;2024-01-06T08:40:38;7.32;;;3.03;;
25437;SDS011;13364;49.084;9.978;2024-01-06T08:43:05;3.42;;;2.60;;
25437;SDS011;13364;49.084;9.978;2024-01-06T08:45:31;3.83;;;2.08;;
25437;SDS011;13364;49.084;9.978;2024-01-06T08:47:58;3.42;;;2.13;;
25437;SDS011;13364;49.084;9.978;2024-01-06T08:50:25;3.40;;;2.35;;
25437;SDS011;13364;49.084;9.978;2024-01-06T08:52:52;10.48;;;5.50;;
25437;SDS011;13364;49.084;9.978;2024-01-06T08:55:19;5.32;;;2.92;;
25437;SDS011;13364;49.084;9.978;2024-01-06T08:57:46;10.88;;;3.78;;
25437;SDS011;13364;49.084;9.978;2024-01-06T09:00:13;4.15;;;2.72;;
25437;SDS011;13364;49.084;9.978;2024-01-06T09:02:40;3.55;;;2.00;;
25437;SDS011;13364;49.084;9.978;2024-01-06T09:05:07;5.63;;;1.98;;
25437;SDS011;13364;49.084;9.978;2024-01-06T09:07:34;5.55;;;1.95;;
25437;SDS011;13364;49.084;9.978;2024-01-06T09:10:01;2.40;;;1.80;;
25437;SDS011;13364;49.084;9.978;2024-01-06T09:12:28;4.10;;;2.25;;
25437;SDS011;13364;49.084;9.978;2024-01-06T09:14:56;3.25;;;1.90;;
25437;SDS011;13364;49.084;9.978;2024-01-06T09:17:22;4.65;;;1.50;;
25437;SDS011;13364;49.084;9.978;2024-01-06T09:19:49;2.15;;;1.88;;
25437;SDS011;13364;49.084;9.978;2024-01-06T09:22:16;6.63;;;2.03;;
25437;SDS011;13364;49.084;9.978;2024-01-06T09:24:43;2.42;;;1.90;;
25437;SDS011;13364;49.084;9.978;2024-01-06T09:27:10;2.30;;;1.65;;
25437;SDS011;13364;49.084;9.978;2024-01-06T09:29:39;3.77;;;1.37;;
25437;SDS011;13364;49.084;9.978;2024-01-06T09:32:06;2.05;;;1.58;;
25437;SDS011;13364;49.084;9.978;2024-01-06T09:34:32;10.57;;;2.50;;
25437;SDS011;13364;49.084;9.978;2024-01-06T09:37:05;2.33;;;1.58;;
25437;SDS011;13364;49.084;9.978;2024-01-06T09:39:32;3.58;;;2.25;;
25437;SDS011;13364;49.084;9.978;2024-01-06T09:41:59;4.63;;;2.13;;
25437;SDS011;13364;49.084;9.978;2024-01-06T09:44:26;4.43;;;2.75;;
25437;SDS011;13364;49.084;9.978;2024-01-06T09:46:53;4.53;;;2.67;;
25437;SDS011;13364;49.084;9.978;2024-01-06T09:49:24;5.28;;;2.08;;
25437;SDS011;13364;49.084;9.978;2024-01-06T09:51:56;1.92;;;1.83;;
25437;SDS011;13364;49.084;9.978;2024-01-06T09:54:26;3.95;;;1.83;;
25437;SDS011;13364;49.084;9.978;2024-01-06T09:57:01;3.80;;;2.50;;
25437;SDS011;13364;49.084;9.978;2024-01-06T10:02:01;3.13;;;2.08;;
25437;SDS011;13364;49.084;9.978;2024-01-06T10:04:30;4.55;;;2.08;;
25437;SDS011;13364;49.084;9.978;2024-01-06T10:07:43;2.40;;;1.52;;
25437;SDS011;13364;49.084;9.978;2024-01-06T10:10:11;2.42;;;1.52;;
25437;SDS011;13364;49.084;9.978;2024-01-06T10:12:39;5.30;;;1.98;;
25437;SDS011;13364;49.084;9.978;2024-01-06T10:15:07;3.72;;;1.58;;
25437;SDS011;13364;49.084;9.978;2024-01-06T10:17:37;2.15;;;1.80;;
25437;SDS011;13364;49.084;9.978;2024-01-06T10:20:09;2.72;;;1.50;;
25437;SDS011;13364;49.084;9.978;2024-01-06T10:22:37;1.65;;;1.52;;
25437;SDS011;13364;49.084;9.978;2024-01-06T10:25:05;2.65;;;1.73;;
25437;SDS011;13364;49.084;9.978;2024-01-06T10:27:42;3.10;;;1.80;;
25437;SDS011;13364;49.084;9.978;2024-01-06T10:30:11;4.53;;;1.80;;
25437;SDS011;13364;49.084;9.978;2024-01-06T10:32:41;2.47;;;1.80;;
25437;SDS011;13364;49.084;9.978;2024-01-06T10:35:08;2.13;;;1.67;;
25437;SDS011;13364;49.084;9.978;2024-01-06T10:37:35;2.50;;;2.15;;
25437;SDS011;13364;49.084;9.978;2024-01-06T10:40:10;6.32;;;1.90;;
25437;SDS011;13364;49.084;9.978;2024-01-06T10:42:39;3.00;;;1.90;;
25437;SDS011;13364;49.084;9.978;2024-01-06T10:45:11;3.53;;;2.00;;
25437;SDS011;13364;49.084;9.978;2024-01-06T10:47:40;2.83;;;1.67;;
25437;SDS011;13364;49.084;9.978;2024-01-06T10:50:09;2.30;;;1.40;;
25437;SDS011;13364;49.084;9.978;2024-01-06T10:52:37;3.75;;;1.60;;
25437;SDS011;13364;49.084;9.978;2024-01-06T10:55:05;5.47;;;1.90;;
25437;SDS011;13364;49.084;9.978;2024-01-06T10:57:32;1.88;;;1.67;;
25437;SDS011;13364;49.084;9.978;2024-01-06T11:00:00;1.98;;;1.38;;
25437;SDS011;13364;49.084;9.978;2024-01-06T11:02:27;3.55;;;2.10;;
25437;SDS011;13364;49.084;9.978;2024-01-06T11:04:55;6.25;;;1.70;;
25437;SDS011;13364;49.084;9.978;2024-01-06T11:07:22;2.72;;;1.58;;
25437;SDS011;13364;49.084;9.978;2024-01-06T11:12:25;4.55;;;2.70;;
25437;SDS011;13364;49.084;9.978;2024-01-06T11:14:55;7.22;;;2.42;;
25437;SDS011;13364;49.084;9.978;2024-01-06T11:20:24;4.43;;;2.10;;
25437;SDS011;13364;49.084;9.978;2024-01-06T11:22:53;5.53;;;2.72;;
25437;SDS011;13364;49.084;9.978;2024-01-06T11:25:20;4.88;;;2.15;;
25437;SDS011;13364;49.084;9.978;2024-01-06T11:27:48;3.75;;;2.42;;
25437;SDS011;13364;49.084;9.978;2024-01-06T11:32:47;6.80;;;2.40;;
25437;SDS011;13364;49.084;9.978;2024-01-06T11:35:14;3.42;;;2.20;;
25437;SDS011;13364;49.084;9.978;2024-01-06T11:40:16;3.92;;;1.70;;
25437;SDS011;13364;49.084;9.978;2024-01-06T11:45:27;2.15;;;1.83;;
25437;SDS011;13364;49.084;9.978;2024-01-06T11:47:58;3.22;;;2.03;;
25437;SDS011;13364;49.084;9.978;2024-01-06T11:50:26;5.22;;;2.28;;
25437;SDS011;13364;49.084;9.978;2024-01-06T11:52:53;4.40;;;2.45;;
25437;SDS011;13364;49.084;9.978;2024-01-06T11:55:21;2.78;;;2.42;;
25437;SDS011;13364;49.084;9.978;2024-01-06T11:57:48;3.05;;;2.22;;
25437;SDS011;13364;49.084;9.978;2024-01-06T12:02:45;4.22;;;2.47;;
25437;SDS011;13364;49.084;9.978;2024-01-06T12:05:12;3.58;;;2.63;;
25437;SDS011;13364;49.084;9.978;2024-01-06T12:07:41;4.43;;;3.08;;
25437;SDS011;13364;49.084;9.978;2024-01-06T12:10:11;5.95;;;2.78;;
25437;SDS011;13364;49.084;9.978;2024-01-06T12:12:38;3.05;;;2.20;;
25437;SDS011;13364;49.084;9.978;2024-01-06T12:15:05;4.43;;;2.83;;
25437;SDS011;13364;49.084;9.978;2024-01-06T12:17:32;4.85;;;2.70;;
25437;SDS011;13364;49.084;9.978;2024-01-06T12:19:59;2.97;;;2.50;;
25437;SDS011;13364;49.084;9.978;2024-01-06T12:22:26;17.70;;;7.05;;
25437;SDS011;13364;49.084;9.978;2024-01-06T12:24:53;3.95;;;2.58;;
25437;SDS011;13364;49.084;9.978;2024-01-06T12:27:21;5.28;;;3.10;;
25437;SDS011;13364;49.084;9.978;2024-01-06T12:29:48;6.00;;;3.05;;
25437;SDS011;13364;49.084;9.978;2024-01-06T12:32:14;7.65;;;3.28;;
25437;SDS011;13364;49.084;9.978;2024-01-06T12:34:41;5.95;;;2.92;;
25437;SDS011;13364;49.084;9.978;2024-01-06T12:37:08;4.40;;;3.15;;
25437;SDS011;13364;49.084;9.978;2024-01-06T12:39:35;4.28;;;3.55;;
25437;SDS011;13364;49.084;9.978;2024-01-06T12:42:02;4.72;;;2.63;;
25437;SDS011;13364;49.084;9.978;2024-01-06T12:44:29;6.72;;;3.83;;
25437;SDS011;13364;49.084;9.978;2024-01-06T12:46:58;5.13;;;3.55;;
25437;SDS011;13364;49.084;9.978;2024-01-06T12:49:25;6.15;;;3.55;;
25437;SDS011;13364;49.084;9.978;2024-01-06T12:51:52;5.18;;;3.58;;
25437;SDS011;13364;49.084;9.978;2024-01-06T12:54:19;8.02;;;3.83;;
25437;SDS011;13364;49.084;9.978;2024-01-06T12:56:46;4.95;;;3.40;;
25437;SDS011;13364;49.084;9.978;2024-01-06T12:59:13;8.68;;;3.35;;
25437;SDS011;13364;49.084;9.978;2024-01-06T13:01:40;6.57;;;3.35;;
25437;SDS011;13364;49.084;9.978;2024-01-06T13:04:08;5.07;;;3.03;;
25437;SDS011;13364;49.084;9.978;2024-01-06T13:06:35;8.15;;;3.65;;
25437;SDS011;13364;49.084;9.978;2024-01-06T13:09:02;8.25;;;3.53;;
25437;SDS011;13364;49.084;9.978;2024-01-06T13:11:34;5.35;;;3.63;;
25437;SDS011;13364;49.084;9.978;2024-01-06T13:16:29;4.00;;;2.95;;
25437;SDS011;13364;49.084;9.978;2024-01-06T13:18:56;5.18;;;2.67;;
25437;SDS011;13364;49.084;9.978;2024-01-06T13:21:23;5.15;;;3.30;;
25437;SDS011;13364;49.084;9.978;2024-01-06T13:23:50;4.40;;;2.78;;
25437;SDS011;13364;49.084;9.978;2024-01-06T13:26:17;5.20;;;3.20;;
25437;SDS011;13364;49.084;9.978;2024-01-06T13:28:44;7.03;;;3.17;;
25437;SDS011;13364;49.084;9.978;2024-01-06T13:31:12;5.80;;;2.95;;
25437;SDS011;13364;49.084;9.978;2024-01-06T13:33:39;3.72;;;3.22;;
25437;SDS011;13364;49.084;9.978;2024-01-06T13:36:06;7.10;;;3.20;;
25437;SDS011;13364;49.084;9.978;2024-01-06T13:38:33;8.75;;;3.03;;
25437;SDS011;13364;49.084;9.978;2024-01-06T13:41:00;6.22;;;3.00;;
25437;SDS011;13364;49.084;9.978;2024-01-06T13:43:27;5.22;;;2.78;;
25437;SDS011;13364;49.084;9.978;2024-01-06T13:45:53;3.38;;;2.28;;
25437;SDS011;13364;49.084;9.978;2024-01-06T13:48:21;5.05;;;3.20;;
25437;SDS011;13364;49.084;9.978;2024-01-06T13:50:48;4.68;;;3.08;;
25437;SDS011;13364;49.084;9.978;2024-01-06T13:53:15;3.50;;;2.83;;
25437;SDS011;13364;49.084;9.978;2024-01-06T13:55:42;3.28;;;2.50;;
25437;SDS011;13364;49.084;9.978;2024-01-06T13:58:10;5.13;;;3.00;;
25437;SDS011;13364;49.084;9.978;2024-01-06T14:00:36;5.13;;;2.78;;
25437;SDS011;13364;49.084;9.978;2024-01-06T14:03:04;3.45;;;2.92;;
25437;SDS011;13364;49.084;9.978;2024-01-06T14:05:33;5.57;;;3.42;;
25437;SDS011;13364;49.084;9.978;2024-01-06T14:08:01;7.50;;;3.03;;
25437;SDS011;13364;49.084;9.978;2024-01-06T14:10:27;4.85;;;3.05;;
25437;SDS011;13364;49.084;9.978;2024-01-06T14:12:54;3.72;;;2.75;;
25437;SDS011;13364;49.084;9.978;2024-01-06T14:15:21;4.45;;;2.90;;
25437;SDS011;13364;49.084;9.978;2024-01-06T14:17:48;6.82;;;3.50;;
25437;SDS011;13364;49.084;9.978;2024-01-06T14:20:17;4.95;;;2.80;;
25437;SDS011;13364;49.084;9.978;2024-01-06T14:22:45;4.32;;;2.83;;
25437;SDS011;13364;49.084;9.978;2024-01-06T14:25:12;4.25;;;2.55;;
25437;SDS011;13364;49.084;9.978;2024-01-06T14:27:43;4.90;;;3.40;;
25437;SDS011;13364;49.084;9.978;2024-01-06T14:30:10;4.43;;;2.85;;
25437;SDS011;13364;49.084;9.978;2024-01-06T14:32:37;2.92;;;2.60;;
25437;SDS011;13364;49.084;9.978;2024-01-06T14:35:05;5.40;;;3.35;;
25437;SDS011;13364;49.084;9.978;2024-01-06T14:37:40;4.85;;;3.35;;
25437;SDS011;13364;49.084;9.978;2024-01-06T14:40:07;4.50;;;2.05;;
25437;SDS011;13364;49.084;9.978;2024-01-06T14:42:34;4.82;;;2.97;;
25437;SDS011;13364;49.084;9.978;2024-01-06T14:45:02;4.40;;;3.13;;
25437;SDS011;13364;49.084;9.978;2024-01-06T14:47:30;5.13;;;2.78;;
25437;SDS011;13364;49.084;9.978;2024-01-06T14:49:58;4.07;;;2.75;;
25437;SDS011;13364;49.084;9.978;2024-01-06T14:52:25;3.78;;;2.53;;
25437;SDS011;13364;49.084;9.978;2024-01-06T14:54:52;4.25;;;2.97;;
25437;SDS011;13364;49.084;9.978;2024-01-06T14:57:19;5.28;;;3.80;;
25437;SDS011;13364;49.084;9.978;2024-01-06T14:59:45;4.20;;;2.85;;
25437;SDS011;13364;49.084;9.978;2024-01-06T15:02:12;8.48;;;3.83;;
25437;SDS011;13364;49.084;9.978;2024-01-06T15:04:39;4.40;;;3.22;;
25437;SDS011;13364;49.084;9.978;2024-01-06T15:07:06;6.07;;;3.95;;
25437;SDS011;13364;49.084;9.978;2024-01-06T15:09:33;6.07;;;3.67;;
25437;SDS011;13364;49.084;9.978;2024-01-06T15:12:04;4.78;;;3.42;;
25437;SDS011;13364;49.084;9.978;2024-01-06T15:14:31;5.03;;;3.22;;
25437;SDS011;13364;49.084;9.978;2024-01-06T15:16:58;7.05;;;3.22;;
25437;SDS011;13364;49.084;9.978;2024-01-06T15:19:25;6.97;;;3.33;;
25437;SDS011;13364;49.084;9.978;2024-01-06T15:21:54;5.05;;;3.30;;
25437;SDS011;13364;49.084;9.978;2024-01-06T15:24:21;5.50;;;3.70;;
25437;SDS011;13364;49.084;9.978;2024-01-06T15:26:50;4.57;;;3.92;;
25437;SDS011;13364;49.084;9.978;2024-01-06T15:29:17;7.38;;;3.50;;
25437;SDS011;13364;49.084;9.978;2024-01-06T15:31:44;9.68;;;3.92;;
25437;SDS011;13364;49.084;9.978;2024-01-06T15:34:12;8.68;;;4.13;;
25437;SDS011;13364;49.084;9.978;2024-01-06T15:36:39;7.05;;;3.78;;
25437;SDS011;13364;49.084;9.978;2024-01-06T15:39:06;8.82;;;3.92;;
25437;SDS011;13364;49.084;9.978;2024-01-06T15:41:33;7.00;;;4.32;;
25437;SDS011;13364;49.084;9.978;2024-01-06T15:44:00;5.30;;;3.30;;
25437;SDS011;13364;49.084;9.978;2024-01-06T15:46:27;5.93;;;3.88;;
25437;SDS011;13364;49.084;9.978;2024-01-06T15:48:53;6.82;;;3.50;;
25437;SDS011;13364;49.084;9.978;2024-01-06T15:51:20;7.32;;;3.72;;
25437;SDS011;13364;49.084;9.978;2024-01-06T15:53:49;5.38;;;3.45;;
25437;SDS011;13364;49.084;9.978;2024-01-06T15:56:17;8.05;;;4.50;;
25437;SDS011;13364;49.084;9.978;2024-01-06T15:58:44;6.03;;;3.80;;
25437;SDS011;13364;49.084;9.978;2024-01-06T16:01:10;6.32;;;4.63;;
25437;SDS011;13364;49.084;9.978;2024-01-06T16:03:38;7.65;;;4.07;;
25437;SDS011;13364;49.084;9.978;2024-01-06T16:06:06;5.82;;;3.78;;
25437;SDS011;13364;49.084;9.978;2024-01-06T16:08:33;6.05;;;4.15;;
25437;SDS011;13364;49.084;9.978;2024-01-06T16:10:59;7.90;;;3.42;;
25437;SDS011;13364;49.084;9.978;2024-01-06T16:13:26;7.90;;;4.20;;
25437;SDS011;13364;49.084;9.978;2024-01-06T16:15:53;6.45;;;3.95;;
25437;SDS011;13364;49.084;9.978;2024-01-06T16:18:20;9.80;;;4.35;;
25437;SDS011;13364;49.084;9.978;2024-01-06T16:20:48;6.00;;;3.45;;
25437;SDS011;13364;49.084;9.978;2024-01-06T16:23:15;6.05;;;4.28;;
25437;SDS011;13364;49.084;9.978;2024-01-06T16:25:45;8.60;;;5.05;;
25437;SDS011;13364;49.084;9.978;2024-01-06T16:28:12;10.90;;;4.90;;
25437;SDS011;13364;49.084;9.978;2024-01-06T16:30:39;6.45;;;4.40;;
25437;SDS011;13364;49.084;9.978;2024-01-06T16:33:09;11.38;;;5.13;;
25437;SDS011;13364;49.084;9.978;2024-01-06T16:35:36;5.60;;;4.38;;
25437;SDS011;13364;49.084;9.978;2024-01-06T16:38:04;7.00;;;4.60;;
25437;SDS011;13364;49.084;9.978;2024-01-06T16:40:31;5.88;;;4.40;;
25437;SDS011;13364;49.084;9.978;2024-01-06T16:42:57;6.40;;;3.67;;
25437;SDS011;13364;49.084;9.978;2024-01-06T16:45:24;6.15;;;4.03;;
25437;SDS011;13364;49.084;9.978;2024-01-06T16:47:53;7.68;;;4.15;;
25437;SDS011;13364;49.084;9.978;2024-01-06T16:50:20;6.22;;;4.00;;
25437;SDS011;13364;49.084;9.978;2024-01-06T16:52:47;7.18;;;3.47;;
25437;SDS011;13364;49.084;9.978;2024-01-06T16:55:13;8.20;;;4.68;;
25437;SDS011;13364;49.084;9.978;2024-01-06T16:57:40;6.93;;;4.60;;
25437;SDS011;13364;49.084;9.978;2024-01-06T17:00:07;7.57;;;4.72;;
25437;SDS011;13364;49.084;9.978;2024-01-06T17:02:38;6.60;;;4.25;;
25437;SDS011;13364;49.084;9.978;2024-01-06T17:05:05;7.57;;;4.78;;
25437;SDS011;13364;49.084;9.978;2024-01-06T17:07:35;7.90;;;4.47;;
25437;SDS011;13364;49.084;9.978;2024-01-06T17:10:02;7.68;;;5.07;;
25437;SDS011;13364;49.084;9.978;2024-01-06T17:12:29;9.80;;;5.35;;
25437;SDS011;13364;49.084;9.978;2024-01-06T17:14:56;9.82;;;4.80;;
25437;SDS011;13364;49.084;9.978;2024-01-06T17:17:23;7.35;;;4.72;;
25437;SDS011;13364;49.084;9.978;2024-01-06T17:19:50;6.95;;;4.10;;
25437;SDS011;13364;49.084;9.978;2024-01-06T17:22:17;6.95;;;4.43;;
25437;SDS011;13364;49.084;9.978;2024-01-06T17:24:44;7.45;;;4.93;;
25437;SDS011;13364;49.084;9.978;2024-01-06T17:27:11;8.93;;;5.05;;
25437;SDS011;13364;49.084;9.978;2024-01-06T17:29:38;9.57;;;5.15;;
25437;SDS011;13364;49.084;9.978;2024-01-06T17:32:05;8.18;;;4.75;;
25437;SDS011;13364;49.084;9.978;2024-01-06T17:34:32;9.75;;;4.07;;
25437;SDS011;13364;49.084;9.978;2024-01-06T17:36:59;4.75;;;3.97;;
25437;SDS011;13364;49.084;9.978;2024-01-06T17:39:26;11.48;;;4.75;;
25437;SDS011;13364;49.084;9.978;2024-01-06T17:41:53;6.18;;;4.22;;
25437;SDS011;13364;49.084;9.978;2024-01-06T17:44:28;6.47;;;4.63;;
25437;SDS011;13364;49.084;9.978;2024-01-06T17:46:56;9.27;;;5.00;;
25437;SDS011;13364;49.084;9.978;2024-01-06T17:49:23;7.25;;;4.80;;
25437;SDS011;13364;49.084;9.978;2024-01-06T17:51:51;7.90;;;4.57;;
25437;SDS011;13364;49.084;9.978;2024-01-06T17:54:17;12.13;;;4.90;;
25437;SDS011;13364;49.084;9.978;2024-01-06T17:56:46;10.75;;;5.55;;
25437;SDS011;13364;49.084;9.978;2024-01-06T17:59:13;9.93;;;5.35;;
25437;SDS011;13364;49.084;9.978;2024-01-06T18:01:40;9.15;;;5.45;;
25437;SDS011;13364;49.084;9.978;2024-01-06T18:04:07;8.30;;;5.28;;
25437;SDS011;13364;49.084;9.978;2024-01-06T18:06:34;12.07;;;5.75;;
25437;SDS011;13364;49.084;9.978;2024-01-06T18:09:01;9.05;;;4.95;;
25437;SDS011;13364;49.084;9.978;2024-01-06T18:11:28;9.10;;;5.15;;
25437;SDS011;13364;49.084;9.978;2024-01-06T18:13:55;6.88;;;4.40;;
25437;SDS011;13364;49.084;9.978;2024-01-06T18:16:22;5.97;;;4.13;;
25437;SDS011;13364;49.084;9.978;2024-01-06T18:18:49;7.85;;;4.30;;
25437;SDS011;13364;49.084;9.978;2024-01-06T18:21:16;6.53;;;4.38;;
25437;SDS011;13364;49.084;9.978;2024-01-06T18:23:44;5.13;;;3.95;;
25437;SDS011;13364;49.084;9.978;2024-01-06T18:26:12;8.57;;;5.10;;
25437;SDS011;13364;49.084;9.978;2024-01-06T18:28:39;6.22;;;5.18;;
25437;SDS011;13364;49.084;9.978;2024-01-06T18:31:06;6.47;;;4.40;;
25437;SDS011;13364;49.084;9.978;2024-01-06T18:33:33;8.27;;;4.68;;
25437;SDS011;13364;49.084;9.978;2024-01-06T18:36:00;7.15;;;4.07;;
25437;SDS011;13364;49.084;9.978;2024-01-06T18:38:28;6.88;;;4.65;;
25437;SDS011;13364;49.084;9.978;2024-01-06T18:40:55;9.35;;;4.70;;
25437;SDS011;13364;49.084;9.978;2024-01-06T18:43:24;6.70;;;4.15;;
25437;SDS011;13364;49.084;9.978;2024-01-06T18:45:52;7.13;;;3.88;;
25437;SDS011;13364;49.084;9.978;2024-01-06T18:48:18;7.05;;;4.95;;
25437;SDS011;13364;49.084;9.978;2024-01-06T18:50:46;8.57;;;5.20;;
25437;SDS011;13364;49.084;9.978;2024-01-06T18:53:13;7.97;;;4.57;;
25437;SDS011;13364;49.084;9.978;2024-01-06T18:55:40;8.02;;;5.05;;
25437;SDS011;13364;49.084;9.978;2024-01-06T18:58:07;8.23;;;5.13;;
25437;SDS011;13364;49.084;9.978;2024-01-06T19:00:35;9.07;;;4.80;;
25437;SDS011;13364;49.084;9.978;2024-01-06T19:03:02;8.68;;;4.90;;
25437;SDS011;13364;49.084;9.978;2024-01-06T19:05:32;6.90;;;4.78;;
25437;SDS011;13364;49.084;9.978;2024-01-06T19:08:00;7.72;;;4.75;;
25437;SDS011;13364;49.084;9.978;2024-01-06T19:10:27;9.77;;;5.50;;
25437;SDS011;13364;49.084;9.978;2024-01-06T19:12:54;8.27;;;5.10;;
25437;SDS011;13364;49.084;9.978;2024-01-06T19:15:21;8.85;;;4.88;;
25437;SDS011;13364;49.084;9.978;2024-01-06T19:17:48;9.93;;;6.22;;
25437;SDS011;13364;49.084;9.978;2024-01-06T19:20:15;8.10;;;5.47;;
25437;SDS011;13364;49.084;9.978;2024-01-06T19:22:42;9.13;;;5.32;;
25437;SDS011;13364;49.084;9.978;2024-01-06T19:25:27;10.18;;;5.78;;
25437;SDS011;13364;49.084;9.978;2024-01-06T19:27:54;8.48;;;5.00;;
25437;SDS011;13364;49.084;9.978;2024-01-06T19:30:21;7.78;;;5.13;;
25437;SDS011;13364;49.084;9.978;2024-01-06T19:32:48;9.85;;;4.97;;
25437;SDS011;13364;49.084;9.978;2024-01-06T19:35:15;7.40;;;4.88;;
25437;SDS011;13364;49.084;9.978;2024-01-06T19:37:42;9.45;;;5.03;;
25437;SDS011;13364;49.084;9.978;2024-01-06T19:40:09;10.75;;;4.95;;
25437;SDS011;13364;49.084;9.978;2024-01-06T19:42:36;10.40;;;5.30;;
25437;SDS011;13364;49.084;9.978;2024-01-06T19:47:33;14.18;;;6.10;;
25437;SDS011;13364;49.084;9.978;2024-01-06T19:50:01;12.90;;;5.15;;
25437;SDS011;13364;49.084;9.978;2024-01-06T19:52:29;7.40;;;4.88;;
25437;SDS011;13364;49.084;9.978;2024-01-06T19:54:56;7.82;;;5.50;;
25437;SDS011;13364;49.084;9.978;2024-01-06T19:57:24;9.75;;;6.13;;
25437;SDS011;13364;49.084;9.978;2024-01-06T19:59:51;11.10;;;5.38;;
25437;SDS011;13364;49.084;9.978;2024-01-06T20:02:18;11.05;;;6.03;;
25437;SDS011;13364;49.084;9.978;2024-01-06T20:04:45;9.23;;;4.97;;
25437;SDS011;13364;49.084;9.978;2024-01-06T20:07:13;9.45;;;5.68;;
25437;SDS011;13364;49.084;9.978;2024-01-06T20:09:44;8.73;;;5.80;;
25437;SDS011;13364;49.084;9.978;2024-01-06T20:12:12;8.75;;;5.03;;
25437;SDS011;13364;49.084;9.978;2024-01-06T20:14:39;7.07;;;5.55;;
25437;SDS011;13364;49.084;9.978;2024-01-06T20:17:06;8.30;;;5.03;;
25437;SDS011;13364;49.084;9.978;2024-01-06T20:19:50;8.27;;;4.60;;
25437;SDS011;13364;49.084;9.978;2024-01-06T20:22:17;6.85;;;4.85;;
25437;SDS011;13364;49.084;9.978;2024-01-06T20:24:44;8.98;;;5.55;;
25437;SDS011;13364;49.084;9.978;2024-01-06T20:27:14;10.60;;;5.35;;
25437;SDS011;13364;49.084;9.978;2024-01-06T20:29:41;10.20;;;4.93;;
25437;SDS011;13364;49.084;9.978;2024-01-06T20:32:07;11.00;;;6.05;;
25437;SDS011;13364;49.084;9.978;2024-01-06T20:34:34;10.13;;;5.57;;
25437;SDS011;13364;49.084;9.978;2024-01-06T20:39:30;8.60;;;4.45;;
25437;SDS011;13364;49.084;9.978;2024-01-06T20:41:57;9.80;;;5.35;;
25437;SDS011;13364;49.084;9.978;2024-01-06T20:44:24;9.32;;;6.00;;
25437;SDS011;13364;49.084;9.978;2024-01-06T20:46:51;7.65;;;4.90;;
25437;SDS011;13364;49.084;9.978;2024-01-06T20:49:19;7.27;;;3.93;;
25437;SDS011;13364;49.084;9.978;2024-01-06T20:51:47;12.50;;;6.50;;
25437;SDS011;13364;49.084;9.978;2024-01-06T20:54:14;10.20;;;5.57;;
25437;SDS011;13364;49.084;9.978;2024-01-06T20:56:40;10.30;;;5.82;;
25437;SDS011;13364;49.084;9.978;2024-01-06T20:59:07;8.38;;;5.80;;
25437;SDS011;13364;49.084;9.978;2024-01-06T21:01:34;11.00;;;5.68;;
25437;SDS011;13364;49.084;9.978;2024-01-06T21:04:01;13.63;;;6.55;;
25437;SDS011;13364;49.084;9.978;2024-01-06T21:06:28;12.05;;;5.55;;
25437;SDS011;13364;49.084;9.978;2024-01-06T21:08:54;8.10;;;5.35;;
25437;SDS011;13364;49.084;9.978;2024-01-06T21:11:21;8.48;;;5.60;;
25437;SDS011;13364;49.084;9.978;2024-01-06T21:13:48;10.10;;;6.22;;
25437;SDS011;13364;49.084;9.978;2024-01-06T21:16:15;10.15;;;6.28;;
25437;SDS011;13364;49.084;9.978;2024-01-06T21:18:43;9.55;;;6.18;;
25437;SDS011;13364;49.084;9.978;2024-01-06T21:21:13;8.40;;;5.68;;
25437;SDS011;13364;49.084;9.978;2024-01-06T21:23:42;11.30;;;5.90;;
25437;SDS011;13364;49.084;9.978;2024-01-06T21:26:14;12.20;;;5.95;;
25437;SDS011;13364;49.084;9.978;2024-01-06T21:28:41;9.23;;;5.57;;
25437;SDS011;13364;49.084;9.978;2024-01-06T21:31:08;12.32;;;6.35;;
25437;SDS011;13364;49.084;9.978;2024-01-06T21:33:35;10.13;;;6.13;;
25437;SDS011;13364;49.084;9.978;2024-01-06T21:36:02;9.98;;;5.00;;
25437;SDS011;13364;49.084;9.978;2024-01-06T21:38:29;9.90;;;6.63;;
25437;SDS011;13364;49.084;9.978;2024-01-06T21:40:56;12.95;;;6.97;;
25437;SDS011;13364;49.084;9.978;2024-01-06T21:43:22;12.15;;;5.78;;